sensor_id;sensor_type;location;lat;lon;timestamp;pressure;altitude;pressure_sealevel;temperature;humidity
35888;BME280;21990;42.540;23.496;2023-09-12T00:00:40;93799.16;;;8.98;100.00
35888;BME280;21990;42.540;23.496;2023-09-12T00:03:05;93806.53;;;8.95;100.00
35888;BME280;21990;42.540;23.496;2023-09-12T00:05:31;93803.50;;;8.93;100.00
35888;BME280;21990;42.540;23.496;2023-09-12T00:07:57;93806.59;;;8.90;100.00
35888;BME280;21990;42.540;23.496;2023-09-12T00:10:22;93799.44;;;8.83;100.00
35888;BME280;21990;42.540;23.496;2023-09-12T00:12:47;93806.63;;;8.79;100.00
35888;BME280;21990;42.540;23.496;2023-09-12T00:15:13;93807.91;;;8.78;100.00
35888;BME280;21990;42.540;23.496;2023-09-12T00:17:39;93813.78;;;8.74;100.00
35888;BME280;21990;42.540;23.496;2023-09-12T00:20:05;93808.94;;;8.69;100.00
35888;BME280;21990;42.540;23.496;2023-09-12T00:22:32;93804.34;;;8.61;100.00
35888;BME280;21990;42.540;23.496;2023-09-12T00:24:57;93808.19;;;8.63;100.00
35888;BME280;21990;42.540;23.496;2023-09-12T00:27:23;93805.38;;;8.57;100.00
35888;BME280;21990;42.540;23.496;2023-09-12T00:29:48;93814.09;;;8.48;100.00
35888;BME280;21990;42.540;23.496;2023-09-12T00:32:14;93813.34;;;8.48;100.00
35888;BME280;21990;42.540;23.496;2023-09-12T00:34:39;93811.81;;;8.47;100.00
35888;BME280;21990;42.540;23.496;2023-09-12T00:37:04;93812.81;;;8.49;100.00
35888;BME280;21990;42.540;23.496;2023-09-12T00:39:30;93811.28;;;8.48;100.00
35888;BME280;21990;42.540;23.496;2023-09-12T00:41:56;93805.16;;;8.44;100.00
35888;BME280;21990;42.540;23.496;2023-09-12T00:44:21;93808.50;;;8.43;100.00
35888;BME280;21990;42.540;23.496;2023-09-12T00:46:47;93815.63;;;8.38;100.00
35888;BME280;21990;42.540;23.496;2023-09-12T00:49:16;93807.47;;;8.35;100.00
35888;BME280;21990;42.540;23.496;2023-09-12T00:51:43;93812.81;;;8.33;100.00
35888;BME280;21990;42.540;23.496;2023-09-12T00:54:10;93817.72;;;8.32;100.00
35888;BME280;21990;42.540;23.496;2023-09-12T00:56:36;93812.09;;;8.32;100.00
35888;BME280;21990;42.540;23.496;2023-09-12T00:59:02;93811.56;;;8.28;100.00
35888;BME280;21990;42.540;23.496;2023-09-12T01:01:28;93811.03;;;8.24;100.00
35888;BME280;21990;42.540;23.496;2023-09-12T01:03:55;93816.38;;;8.22;100.00
35888;BME280;21990;42.540;23.496;2023-09-12T01:06:24;93815.66;;;8.16;100.00
35888;BME280;21990;42.540;23.496;2023-09-12T01:08:53;93806.44;;;8.10;100.00
35888;BME280;21990;42.540;23.496;2023-09-12T01:11:19;93816.38;;;8.05;100.00
35888;BME280;21990;42.540;23.496;2023-09-12T01:13:45;93808.25;;;8.07;100.00
35888;BME280;21990;42.540;23.496;2023-09-12T01:16:11;93810.53;;;7.98;100.00
35888;BME280;21990;42.540;23.496;2023-09-12T01:18:36;93810.53;;;7.92;100.00
35888;BME280;21990;42.540;23.496;2023-09-12T01:29:03;93824.06;;;7.77;100.00
35888;BME280;21990;42.540;23.496;2023-09-12T01:31:31;93827.09;;;7.79;100.00
35888;BME280;21990;42.540;23.496;2023-09-12T01:34:08;93838.31;;;7.79;100.00
35888;BME280;21990;42.540;23.496;2023-09-12T01:36:34;93827.34;;;7.76;100.00
35888;BME280;21990;42.540;23.496;2023-09-12T01:39:00;93835.53;;;7.74;100.00
35888;BME280;21990;42.540;23.496;2023-09-12T01:41:26;93824.28;;;7.68;100.00
35888;BME280;21990;42.540;23.496;2023-09-12T01:43:52;93841.38;;;7.70;100.00
35888;BME280;21990;42.540;23.496;2023-09-12T01:46:18;93843.44;;;7.70;100.00
35888;BME280;21990;42.540;23.496;2023-09-12T01:48:46;93831.94;;;7.68;100.00
35888;BME280;21990;42.540;23.496;2023-09-12T01:51:17;93839.09;;;7.69;100.00
35888;BME280;21990;42.540;23.496;2023-09-12T01:53:45;93829.91;;;7.68;100.00
35888;BME280;21990;42.540;23.496;2023-09-12T01:56:12;93828.13;;;7.65;100.00
35888;BME280;21990;42.540;23.496;2023-09-12T01:58:38;93827.84;;;7.63;100.00
35888;BME280;21990;42.540;23.496;2023-09-12T02:01:04;93817.91;;;7.62;100.00
35888;BME280;21990;42.540;23.496;2023-09-12T02:03:30;93825.56;;;7.61;100.00
35888;BME280;21990;42.540;23.496;2023-09-12T02:05:55;93837.56;;;7.62;100.00
35888;BME280;21990;42.540;23.496;2023-09-12T02:08:22;93830.41;;;7.61;100.00
35888;BME280;21990;42.540;23.496;2023-09-12T02:10:47;93834.75;;;7.62;100.00
35888;BME280;21990;42.540;23.496;2023-09-12T02:13:13;93836.00;;;7.61;100.00
35888;BME280;21990;42.540;23.496;2023-09-12T02:15:38;93835.50;;;7.57;100.00
35888;BME280;21990;42.540;23.496;2023-09-12T02:18:04;93840.81;;;7.55;100.00
35888;BME280;21990;42.540;23.496;2023-09-12T02:20:31;93843.63;;;7.55;100.00
35888;BME280;21990;42.540;23.496;2023-09-12T02:22:57;93840.59;;;7.53;100.00
35888;BME280;21990;42.540;23.496;2023-09-12T02:25:23;93841.06;;;7.51;100.00
35888;BME280;21990;42.540;23.496;2023-09-12T02:27:48;93838.03;;;7.49;100.00
35888;BME280;21990;42.540;23.496;2023-09-12T02:30:14;93843.59;;;7.44;100.00
35888;BME280;21990;42.540;23.496;2023-09-12T02:32:42;93841.81;;;7.41;100.00
35888;BME280;21990;42.540;23.496;2023-09-12T02:35:07;93841.81;;;7.35;100.00
35888;BME280;21990;42.540;23.496;2023-09-12T02:37:33;93841.56;;;7.33;100.00
35888;BME280;21990;42.540;23.496;2023-09-12T02:39:58;93840.78;;;7.27;100.00
35888;BME280;21990;42.540;23.496;2023-09-12T02:42:24;93849.19;;;7.27;100.00
35888;BME280;21990;42.540;23.496;2023-09-12T02:44:50;93842.81;;;7.27;100.00
35888;BME280;21990;42.540;23.496;2023-09-12T02:47:17;93841.53;;;7.22;100.00
35888;BME280;21990;42.540;23.496;2023-09-12T02:49:43;93847.38;;;7.19;100.00
35888;BME280;21990;42.540;23.496;2023-09-12T02:52:08;93845.84;;;7.18;100.00
35888;BME280;21990;42.540;23.496;2023-09-12T02:54:34;93843.28;;;7.14;100.00
35888;BME280;21990;42.540;23.496;2023-09-12T02:56:59;93845.56;;;7.10;100.00
35888;BME280;21990;42.540;23.496;2023-09-12T02:59:25;93845.56;;;7.10;100.00
35888;BME280;21990;42.540;23.496;2023-09-12T03:01:50;93850.91;;;7.08;100.00
35888;BME280;21990;42.540;23.496;2023-09-12T03:04:16;93838.66;;;7.05;100.00
35888;BME280;21990;42.540;23.496;2023-09-12T03:06:41;93845.03;;;7.06;100.00
35888;BME280;21990;42.540;23.496;2023-09-12T03:09:07;93848.84;;;7.03;100.00
35888;BME280;21990;42.540;23.496;2023-09-12T03:11:32;93844.25;;;7.00;100.00
35888;BME280;21990;42.540;23.496;2023-09-12T03:13:58;93839.63;;;6.97;100.00
35888;BME280;21990;42.540;23.496;2023-09-12T03:16:23;93841.41;;;6.94;100.00
35888;BME280;21990;42.540;23.496;2023-09-12T03:18:49;93847.28;;;6.96;100.00
35888;BME280;21990;42.540;23.496;2023-09-12T03:21:15;93838.59;;;6.94;100.00
35888;BME280;21990;42.540;23.496;2023-09-12T03:23:40;93853.38;;;6.95;100.00
35888;BME280;21990;42.540;23.496;2023-09-12T03:26:06;93840.38;;;6.92;100.00
35888;BME280;21990;42.540;23.496;2023-09-12T03:28:32;93853.63;;;6.91;100.00
35888;BME280;21990;42.540;23.496;2023-09-12T03:31:07;93849.56;;;6.92;100.00
35888;BME280;21990;42.540;23.496;2023-09-12T03:33:33;93854.34;;;6.86;100.00
35888;BME280;21990;42.540;23.496;2023-09-12T03:35:58;93853.59;;;6.86;100.00
35888;BME280;21990;42.540;23.496;2023-09-12T03:38:24;93859.97;;;6.86;100.00
35888;BME280;21990;42.540;23.496;2023-09-12T03:40:49;93861.75;;;6.84;100.00
35888;BME280;21990;42.540;23.496;2023-09-12T03:43:15;93865.03;;;6.82;100.00
35888;BME280;21990;42.540;23.496;2023-09-12T03:45:40;93861.22;;;6.80;100.00
35888;BME280;21990;42.540;23.496;2023-09-12T03:48:06;93861.22;;;6.80;100.00
35888;BME280;21990;42.540;23.496;2023-09-12T03:50:32;93867.06;;;6.76;100.00
35888;BME280;21990;42.540;23.496;2023-09-12T03:52:57;93863.72;;;6.72;100.00
35888;BME280;21990;42.540;23.496;2023-09-12T03:55:23;93866.28;;;6.76;100.00
35888;BME280;21990;42.540;23.496;2023-09-12T03:57:48;93857.06;;;6.69;100.00
35888;BME280;21990;42.540;23.496;2023-09-12T04:00:14;93863.41;;;6.64;100.00
35888;BME280;21990;42.540;23.496;2023-09-12T04:02:40;93856.00;;;6.61;100.00
35888;BME280;21990;42.540;23.496;2023-09-12T04:05:06;93864.94;;;6.65;100.00
35888;BME280;21990;42.540;23.496;2023-09-12T04:07:31;93862.66;;;6.64;100.00
35888;BME280;21990;42.540;23.496;2023-09-12T04:09:57;93864.94;;;6.65;100.00
35888;BME280;21990;42.540;23.496;2023-09-12T04:12:22;93864.44;;;6.67;100.00
35888;BME280;21990;42.540;23.496;2023-09-12T04:14:49;93857.84;;;6.70;100.00
35888;BME280;21990;42.540;23.496;2023-09-12T04:17:16;93860.16;;;6.72;100.00
35888;BME280;21990;42.540;23.496;2023-09-12T04:19:42;93855.31;;;6.72;100.00
35888;BME280;21990;42.540;23.496;2023-09-12T04:22:07;93860.94;;;6.78;100.00
35888;BME280;21990;42.540;23.496;2023-09-12T04:24:33;93869.88;;;6.82;100.00
35888;BME280;21990;42.540;23.496;2023-09-12T04:26:59;93873.72;;;6.84;100.00
35888;BME280;21990;42.540;23.496;2023-09-12T04:29:24;93865.56;;;6.86;100.00
35888;BME280;21990;42.540;23.496;2023-09-12T04:31:50;93864.84;;;6.91;100.00
35888;BME280;21990;42.540;23.496;2023-09-12T04:34:17;93879.38;;;6.95;99.92
35888;BME280;21990;42.540;23.496;2023-09-12T04:36:43;93873.78;;;7.01;99.89
35888;BME280;21990;42.540;23.496;2023-09-12T04:39:09;93863.88;;;7.05;99.85
35888;BME280;21990;42.540;23.496;2023-09-12T04:41:40;93864.41;;;7.09;100.00
35888;BME280;21990;42.540;23.496;2023-09-12T04:44:06;93865.44;;;7.18;100.00
35888;BME280;21990;42.540;23.496;2023-09-12T04:46:32;93859.09;;;7.23;100.00
35888;BME280;21990;42.540;23.496;2023-09-12T04:48:57;93864.25;;;7.35;100.00
35888;BME280;21990;42.540;23.496;2023-09-12T04:51:23;93867.34;;;7.48;100.00
35888;BME280;21990;42.540;23.496;2023-09-12T04:53:48;93870.94;;;7.60;100.00
35888;BME280;21990;42.540;23.496;2023-09-12T04:56:17;93862.81;;;7.73;99.94
35888;BME280;21990;42.540;23.496;2023-09-12T04:58:42;93862.81;;;7.84;99.49
35888;BME280;21990;42.540;23.496;2023-09-12T05:01:08;93861.56;;;8.02;99.19
35888;BME280;21990;42.540;23.496;2023-09-12T05:03:35;93863.09;;;8.20;98.61
35888;BME280;21990;42.540;23.496;2023-09-12T05:06:00;93868.50;;;8.40;97.58
35888;BME280;21990;42.540;23.496;2023-09-12T05:08:26;93858.00;;;8.57;96.29
35888;BME280;21990;42.540;23.496;2023-09-12T05:10:52;93870.47;;;8.73;95.69
35888;BME280;21990;42.540;23.496;2023-09-12T05:13:17;93866.88;;;8.94;95.14
35888;BME280;21990;42.540;23.496;2023-09-12T05:15:44;93859.34;;;9.19;95.00
35888;BME280;21990;42.540;23.496;2023-09-12T05:18:10;93858.38;;;9.69;93.77
35888;BME280;21990;42.540;23.496;2023-09-12T05:20:36;93862.47;;;10.44;90.93
35888;BME280;21990;42.540;23.496;2023-09-12T05:23:01;93860.94;;;11.40;87.54
35888;BME280;21990;42.540;23.496;2023-09-12T05:25:27;93857.28;;;14.15;77.79
35888;BME280;21990;42.540;23.496;2023-09-12T05:27:54;93839.72;;;17.54;62.64
35888;BME280;21990;42.540;23.496;2023-09-12T05:30:20;93842.88;;;19.75;53.39
35888;BME280;21990;42.540;23.496;2023-09-12T05:32:45;93842.53;;;22.22;47.80
35888;BME280;21990;42.540;23.496;2023-09-12T05:35:14;93842.25;;;24.18;42.80
35888;BME280;21990;42.540;23.496;2023-09-12T05:37:39;93846.78;;;25.76;39.82
35888;BME280;21990;42.540;23.496;2023-09-12T05:40:09;93832.47;;;27.23;36.80
35888;BME280;21990;42.540;23.496;2023-09-12T05:42:35;93833.78;;;28.41;34.09
35888;BME280;21990;42.540;23.496;2023-09-12T05:45:01;93832.09;;;28.93;33.19
35888;BME280;21990;42.540;23.496;2023-09-12T05:47:27;93834.44;;;30.02;32.36
35888;BME280;21990;42.540;23.496;2023-09-12T05:49:53;93841.53;;;30.79;29.97
35888;BME280;21990;42.540;23.496;2023-09-12T05:52:26;93828.19;;;31.78;29.49
35888;BME280;21990;42.540;23.496;2023-09-12T05:54:52;93829.03;;;31.63;29.80
35888;BME280;21990;42.540;23.496;2023-09-12T05:57:17;93820.81;;;32.54;28.38
35888;BME280;21990;42.540;23.496;2023-09-12T05:59:43;93825.63;;;33.07;27.37
35888;BME280;21990;42.540;23.496;2023-09-12T06:02:09;93822.22;;;33.81;27.41
35888;BME280;21990;42.540;23.496;2023-09-12T06:04:35;93830.44;;;34.35;26.55
35888;BME280;21990;42.540;23.496;2023-09-12T06:07:02;93824.31;;;34.50;25.08
35888;BME280;21990;42.540;23.496;2023-09-12T06:09:28;93823.75;;;34.82;25.75
35888;BME280;21990;42.540;23.496;2023-09-12T06:11:54;93822.38;;;35.40;24.90
35888;BME280;21990;42.540;23.496;2023-09-12T06:14:20;93827.13;;;35.85;25.15
35888;BME280;21990;42.540;23.496;2023-09-12T06:16:45;93827.44;;;36.29;24.49
35888;BME280;21990;42.540;23.496;2023-09-12T06:19:11;93827.72;;;36.43;24.38
35888;BME280;21990;42.540;23.496;2023-09-12T06:21:36;93825.69;;;36.52;24.26
35888;BME280;21990;42.540;23.496;2023-09-12T06:24:10;93834.66;;;36.24;23.65
35888;BME280;21990;42.540;23.496;2023-09-12T06:26:36;93821.09;;;36.43;24.22
35888;BME280;21990;42.540;23.496;2023-09-12T06:29:02;93820.69;;;36.94;24.97
35888;BME280;21990;42.540;23.496;2023-09-12T06:31:28;93815.31;;;36.81;23.99
35888;BME280;21990;42.540;23.496;2023-09-12T06:33:54;93834.91;;;36.70;23.86
35888;BME280;21990;42.540;23.496;2023-09-12T06:36:19;93824.81;;;36.11;24.78
35888;BME280;21990;42.540;23.496;2023-09-12T06:38:45;93824.00;;;36.09;24.93
35888;BME280;21990;42.540;23.496;2023-09-12T06:41:11;93819.41;;;36.00;25.69
35888;BME280;21990;42.540;23.496;2023-09-12T06:43:36;93821.88;;;36.11;25.77
35888;BME280;21990;42.540;23.496;2023-09-12T06:46:02;93825.53;;;36.10;26.90
35888;BME280;21990;42.540;23.496;2023-09-12T06:48:27;93830.53;;;36.05;26.08
35888;BME280;21990;42.540;23.496;2023-09-12T06:50:56;93828.34;;;35.44;27.09
35888;BME280;21990;42.540;23.496;2023-09-12T06:53:21;93822.59;;;33.94;29.02
35888;BME280;21990;42.540;23.496;2023-09-12T06:55:47;93818.94;;;32.82;30.10
35888;BME280;21990;42.540;23.496;2023-09-12T06:58:12;93819.31;;;31.39;31.93
35888;BME280;21990;42.540;23.496;2023-09-12T07:00:38;93810.69;;;30.39;33.55
35888;BME280;21990;42.540;23.496;2023-09-12T07:03:04;93818.41;;;29.69;36.64
35888;BME280;21990;42.540;23.496;2023-09-12T07:05:30;93814.84;;;29.10;35.70
35888;BME280;21990;42.540;23.496;2023-09-12T07:07:55;93820.59;;;28.38;39.00
35888;BME280;21990;42.540;23.496;2023-09-12T07:10:21;93813.94;;;27.95;37.66
35888;BME280;21990;42.540;23.496;2023-09-12T07:12:47;93815.75;;;27.88;38.94
35888;BME280;21990;42.540;23.496;2023-09-12T07:15:13;93812.38;;;27.53;37.65
35888;BME280;21990;42.540;23.496;2023-09-12T07:17:39;93814.34;;;26.98;39.59
35888;BME280;21990;42.540;23.496;2023-09-12T07:20:05;93817.25;;;26.98;40.62
35888;BME280;21990;42.540;23.496;2023-09-12T07:22:37;93816.19;;;26.79;41.90
35888;BME280;21990;42.540;23.496;2023-09-12T07:25:04;93814.34;;;26.72;41.57
35888;BME280;21990;42.540;23.496;2023-09-12T07:27:30;93815.81;;;26.73;40.01
35888;BME280;21990;42.540;23.496;2023-09-12T07:29:55;93811.91;;;26.80;39.62
35888;BME280;21990;42.540;23.496;2023-09-12T07:32:21;93811.88;;;26.55;40.20
35888;BME280;21990;42.540;23.496;2023-09-12T07:34:46;93805.81;;;26.26;41.80
35888;BME280;21990;42.540;23.496;2023-09-12T07:37:14;93812.31;;;26.38;41.20
35888;BME280;21990;42.540;23.496;2023-09-12T07:39:40;93812.25;;;26.61;41.89
35888;BME280;21990;42.540;23.496;2023-09-12T07:42:05;93804.63;;;26.79;42.10
35888;BME280;21990;42.540;23.496;2023-09-12T07:44:31;93811.06;;;27.03;41.84
35888;BME280;21990;42.540;23.496;2023-09-12T07:46:57;93800.09;;;27.27;39.51
35888;BME280;21990;42.540;23.496;2023-09-12T07:49:22;93806.97;;;26.83;38.16
35888;BME280;21990;42.540;23.496;2023-09-12T07:51:51;93803.34;;;26.57;39.47
35888;BME280;21990;42.540;23.496;2023-09-12T07:54:17;93787.09;;;26.64;42.64
35888;BME280;21990;42.540;23.496;2023-09-12T07:56:43;93791.88;;;26.96;40.85
35888;BME280;21990;42.540;23.496;2023-09-12T07:59:09;93790.63;;;27.13;41.12
35888;BME280;21990;42.540;23.496;2023-09-12T08:01:36;93791.34;;;27.38;41.43
35888;BME280;21990;42.540;23.496;2023-09-12T08:04:01;93791.16;;;27.48;39.00
35888;BME280;21990;42.540;23.496;2023-09-12T08:06:27;93796.97;;;27.62;41.15
35888;BME280;21990;42.540;23.496;2023-09-12T08:08:52;93790.00;;;27.67;39.11
35888;BME280;21990;42.540;23.496;2023-09-12T08:11:18;93791.63;;;27.70;36.79
35888;BME280;21990;42.540;23.496;2023-09-12T08:13:48;93793.19;;;27.59;35.05
35888;BME280;21990;42.540;23.496;2023-09-12T08:16:14;93793.63;;;27.54;38.43
35888;BME280;21990;42.540;23.496;2023-09-12T08:18:39;93782.06;;;27.54;35.70
35888;BME280;21990;42.540;23.496;2023-09-12T08:21:05;93780.88;;;27.59;36.82
35888;BME280;21990;42.540;23.496;2023-09-12T08:23:30;93781.31;;;27.67;39.78
35888;BME280;21990;42.540;23.496;2023-09-12T08:25:56;93784.84;;;27.79;35.30
35888;BME280;21990;42.540;23.496;2023-09-12T08:28:21;93771.78;;;27.78;33.65
35888;BME280;21990;42.540;23.496;2023-09-12T08:30:47;93789.88;;;27.51;33.84
35888;BME280;21990;42.540;23.496;2023-09-12T08:33:13;93783.59;;;27.43;34.19
35888;BME280;21990;42.540;23.496;2023-09-12T08:35:38;93785.28;;;27.60;34.58
35888;BME280;21990;42.540;23.496;2023-09-12T08:38:06;93780.53;;;27.39;34.07
35888;BME280;21990;42.540;23.496;2023-09-12T08:40:33;93771.78;;;27.12;34.17
35888;BME280;21990;42.540;23.496;2023-09-12T08:43:01;93782.38;;;27.07;35.16
35888;BME280;21990;42.540;23.496;2023-09-12T08:45:29;93781.94;;;27.13;36.82
35888;BME280;21990;42.540;23.496;2023-09-12T08:47:58;93779.16;;;27.15;34.02
35888;BME280;21990;42.540;23.496;2023-09-12T08:50:25;93762.59;;;26.90;35.84
35888;BME280;21990;42.540;23.496;2023-09-12T08:52:54;93771.84;;;27.00;36.07
35888;BME280;21990;42.540;23.496;2023-09-12T08:55:19;93771.50;;;26.94;34.01
35888;BME280;21990;42.540;23.496;2023-09-12T08:57:47;93767.56;;;26.76;34.69
35888;BME280;21990;42.540;23.496;2023-09-12T09:00:15;93765.38;;;26.88;35.08
35888;BME280;21990;42.540;23.496;2023-09-12T09:02:42;93778.88;;;26.97;33.82
35888;BME280;21990;42.540;23.496;2023-09-12T09:05:09;93777.31;;;26.82;34.16
35888;BME280;21990;42.540;23.496;2023-09-12T09:07:40;93765.75;;;26.82;33.96
35888;BME280;21990;42.540;23.496;2023-09-12T09:10:09;93761.69;;;27.13;33.73
35888;BME280;21990;42.540;23.496;2023-09-12T09:12:35;93770.19;;;27.22;36.35
35888;BME280;21990;42.540;23.496;2023-09-12T09:15:24;93761.34;;;27.46;34.14
35888;BME280;21990;42.540;23.496;2023-09-12T09:17:55;93764.84;;;27.30;34.36
35888;BME280;21990;42.540;23.496;2023-09-12T09:20:30;93773.22;;;27.38;33.63
35888;BME280;21990;42.540;23.496;2023-09-12T09:25:31;93766.00;;;26.86;33.21
35888;BME280;21990;42.540;23.496;2023-09-12T09:27:57;93765.88;;;27.10;33.77
35888;BME280;21990;42.540;23.496;2023-09-12T09:30:40;93762.28;;;27.36;33.77
35888;BME280;21990;42.540;23.496;2023-09-12T09:33:06;93763.78;;;27.37;38.16
35888;BME280;21990;42.540;23.496;2023-09-12T09:35:32;93749.25;;;27.49;33.27
35888;BME280;21990;42.540;23.496;2023-09-12T09:37:58;93750.31;;;27.56;32.15
35888;BME280;21990;42.540;23.496;2023-09-12T09:40:24;93762.88;;;27.60;34.55
35888;BME280;21990;42.540;23.496;2023-09-12T09:42:54;93752.47;;;27.16;29.37
35888;BME280;21990;42.540;23.496;2023-09-12T09:45:21;93756.34;;;27.21;32.47
35888;BME280;21990;42.540;23.496;2023-09-12T09:47:48;93756.97;;;27.06;31.06
35888;BME280;21990;42.540;23.496;2023-09-12T09:50:14;93745.13;;;27.27;34.46
35888;BME280;21990;42.540;23.496;2023-09-12T09:52:40;93748.59;;;27.64;32.39
35888;BME280;21990;42.540;23.496;2023-09-12T09:55:06;93748.78;;;27.27;32.54
35888;BME280;21990;42.540;23.496;2023-09-12T09:57:37;93746.63;;;27.42;33.20
35888;BME280;21990;42.540;23.496;2023-09-12T10:00:03;93750.00;;;27.50;32.79
35888;BME280;21990;42.540;23.496;2023-09-12T10:02:35;93749.41;;;27.26;33.95
35888;BME280;21990;42.540;23.496;2023-09-12T10:05:05;93750.16;;;27.40;34.90
35888;BME280;21990;42.540;23.496;2023-09-12T10:07:37;93747.28;;;27.40;32.88
35888;BME280;21990;42.540;23.496;2023-09-12T10:10:04;93740.00;;;27.39;33.18
35888;BME280;21990;42.540;23.496;2023-09-12T10:12:36;93735.38;;;27.34;34.09
35888;BME280;21990;42.540;23.496;2023-09-12T10:15:04;93736.53;;;27.15;32.31
35888;BME280;21990;42.540;23.496;2023-09-12T10:17:35;93733.97;;;27.21;33.13
35888;BME280;21990;42.540;23.496;2023-09-12T10:20:08;93740.00;;;27.39;33.08
35888;BME280;21990;42.540;23.496;2023-09-12T10:22:40;93733.28;;;27.62;32.20
35888;BME280;21990;42.540;23.496;2023-09-12T10:25:12;93731.38;;;27.66;31.44
35888;BME280;21990;42.540;23.496;2023-09-12T10:27:37;93728.03;;;27.72;32.93
35888;BME280;21990;42.540;23.496;2023-09-12T10:30:04;93727.38;;;27.87;32.44
35888;BME280;21990;42.540;23.496;2023-09-12T10:32:32;93722.00;;;27.95;32.58
35888;BME280;21990;42.540;23.496;2023-09-12T10:34:59;93722.41;;;28.03;33.13
35888;BME280;21990;42.540;23.496;2023-09-12T10:37:28;93715.13;;;28.16;36.01
35888;BME280;21990;42.540;23.496;2023-09-12T10:39:56;93715.56;;;27.97;31.95
35888;BME280;21990;42.540;23.496;2023-09-12T10:42:27;93718.03;;;27.75;32.00
35888;BME280;21990;42.540;23.496;2023-09-12T10:44:54;93718.38;;;27.81;36.43
35888;BME280;21990;42.540;23.496;2023-09-12T10:47:20;93707.63;;;27.97;37.54
35888;BME280;21990;42.540;23.496;2023-09-12T10:49:48;93707.28;;;28.18;34.58
35888;BME280;21990;42.540;23.496;2023-09-12T10:52:34;93707.25;;;28.32;32.95
35888;BME280;21990;42.540;23.496;2023-09-12T10:55:07;93698.09;;;28.08;30.54
35888;BME280;21990;42.540;23.496;2023-09-12T10:57:33;93700.09;;;28.06;33.44
35888;BME280;21990;42.540;23.496;2023-09-12T11:02:37;93688.09;;;27.98;32.10
35888;BME280;21990;42.540;23.496;2023-09-12T11:05:04;93684.88;;;27.92;32.41
35888;BME280;21990;42.540;23.496;2023-09-12T11:07:34;93692.06;;;27.91;31.01
35888;BME280;21990;42.540;23.496;2023-09-12T11:12:48;93693.47;;;28.17;36.67
35888;BME280;21990;42.540;23.496;2023-09-12T11:15:15;93674.66;;;28.18;32.47
35888;BME280;21990;42.540;23.496;2023-09-12T11:17:42;93672.50;;;28.18;33.53
35888;BME280;21990;42.540;23.496;2023-09-12T11:20:08;93678.22;;;28.16;33.87
35888;BME280;21990;42.540;23.496;2023-09-12T11:22:38;93686.06;;;28.00;33.30
35888;BME280;21990;42.540;23.496;2023-09-12T11:25:26;93675.13;;;28.12;32.81
35888;BME280;21990;42.540;23.496;2023-09-12T11:30:18;93667.63;;;27.94;30.50
35888;BME280;21990;42.540;23.496;2023-09-12T11:32:47;93666.53;;;28.01;31.86
35888;BME280;21990;42.540;23.496;2023-09-12T11:35:14;93668.56;;;28.12;31.88
35888;BME280;21990;42.540;23.496;2023-09-12T11:37:48;93665.56;;;27.96;32.46
35888;BME280;21990;42.540;23.496;2023-09-12T11:42:40;93667.56;;;27.78;31.26
35888;BME280;21990;42.540;23.496;2023-09-12T11:45:11;93658.19;;;27.79;31.18
35888;BME280;21990;42.540;23.496;2023-09-12T11:47:44;93657.00;;;27.84;34.99
35888;BME280;21990;42.540;23.496;2023-09-12T11:53:07;93650.63;;;28.02;41.90
35888;BME280;21990;42.540;23.496;2023-09-12T11:55:44;93653.84;;;28.08;38.94
35888;BME280;21990;42.540;23.496;2023-09-12T11:58:11;93645.78;;;28.20;32.24
35888;BME280;21990;42.540;23.496;2023-09-12T12:00:37;93657.06;;;28.14;39.48
35888;BME280;21990;42.540;23.496;2023-09-12T12:03:04;93655.03;;;28.03;38.29
35888;BME280;21990;42.540;23.496;2023-09-12T12:05:29;93647.44;;;27.96;39.94
35888;BME280;21990;42.540;23.496;2023-09-12T12:07:55;93642.28;;;27.94;38.18
35888;BME280;21990;42.540;23.496;2023-09-12T12:10:23;93648.34;;;27.84;39.84
35888;BME280;21990;42.540;23.496;2023-09-12T12:12:52;93644.13;;;27.88;40.09
35888;BME280;21990;42.540;23.496;2023-09-12T12:15:18;93631.91;;;27.89;40.16
35888;BME280;21990;42.540;23.496;2023-09-12T12:17:44;93632.47;;;27.72;39.38
35888;BME280;21990;42.540;23.496;2023-09-12T12:20:10;93629.91;;;27.64;38.60
35888;BME280;21990;42.540;23.496;2023-09-12T12:22:56;93639.16;;;27.61;37.44
35888;BME280;21990;42.540;23.496;2023-09-12T12:25:22;93632.72;;;27.49;36.90
35888;BME280;21990;42.540;23.496;2023-09-12T12:27:48;93629.50;;;27.56;41.07
35888;BME280;21990;42.540;23.496;2023-09-12T12:30:14;93626.81;;;27.60;36.14
35888;BME280;21990;42.540;23.496;2023-09-12T12:32:44;93628.75;;;27.56;41.31
35888;BME280;21990;42.540;23.496;2023-09-12T12:35:19;93626.94;;;27.49;41.31
35888;BME280;21990;42.540;23.496;2023-09-12T12:37:48;93630.47;;;27.47;36.93
35888;BME280;21990;42.540;23.496;2023-09-12T12:40:14;93631.97;;;27.48;34.52
35888;BME280;21990;42.540;23.496;2023-09-12T12:42:46;93626.84;;;27.47;35.89
35888;BME280;21990;42.540;23.496;2023-09-12T12:45:17;93628.00;;;27.55;37.48
35888;BME280;21990;42.540;23.496;2023-09-12T12:47:46;93623.19;;;27.46;37.16
35888;BME280;21990;42.540;23.496;2023-09-12T12:50:16;93621.53;;;27.43;40.92
35888;BME280;21990;42.540;23.496;2023-09-12T12:52:47;93618.97;;;27.35;40.87
35888;BME280;21990;42.540;23.496;2023-09-12T12:55:14;93613.31;;;27.24;41.00
35888;BME280;21990;42.540;23.496;2023-09-12T12:57:44;93612.69;;;27.12;37.67
35888;BME280;21990;42.540;23.496;2023-09-12T13:00:12;93619.19;;;27.12;39.24
35888;BME280;21990;42.540;23.496;2023-09-12T13:02:39;93616.75;;;27.07;33.55
35888;BME280;21990;42.540;23.496;2023-09-12T13:05:19;93614.47;;;27.05;38.98
35888;BME280;21990;42.540;23.496;2023-09-12T13:07:45;93611.69;;;26.94;42.53
35888;BME280;21990;42.540;23.496;2023-09-12T13:10:10;93616.78;;;26.81;42.74
35888;BME280;21990;42.540;23.496;2023-09-12T13:12:39;93608.19;;;26.70;42.29